sensor_id;sensor_type;location;lat;lon;timestamp;P1;durP1;ratioP1;P2;durP2;ratioP2
71423;SDS011;59240;51.370;-0.486;2022-11-20T00:03:36;32.20;;;11.73;;
71423;SDS011;59240;51.370;-0.486;2022-11-20T00:06:04;26.03;;;11.77;;
71423;SDS011;59240;51.370;-0.486;2022-11-20T00:08:32;32.30;;;12.43;;
71423;SDS011;59240;51.370;-0.486;2022-11-20T00:11:05;23.27;;;10.98;;
71423;SDS011;59240;51.370;-0.486;2022-11-20T00:13:43;22.20;;;10.43;;
71423;SDS011;59240;51.370;-0.486;2022-11-20T00:16:11;29.33;;;10.23;;
71423;SDS011;59240;51.370;-0.486;2022-11-20T00:18:38;22.00;;;10.27;;
71423;SDS011;59240;51.370;-0.486;2022-11-20T00:21:06;29.83;;;11.15;;
71423;SDS011;59240;51.370;-0.486;2022-11-20T00:23:36;27.35;;;12.00;;
71423;SDS011;59240;51.370;-0.486;2022-11-20T00:26:03;23.65;;;10.95;;
71423;SDS011;59240;51.370;-0.486;2022-11-20T00:28:31;29.23;;;11.68;;
71423;SDS011;59240;51.370;-0.486;2022-11-20T00:31:05;22.63;;;10.57;;
71423;SDS011;59240;51.370;-0.486;2022-11-20T00:33:33;21.40;;;8.90;;
71423;SDS011;59240;51.370;-0.486;2022-11-20T00:36:01;21.27;;;9.50;;
71423;SDS011;59240;51.370;-0.486;2022-11-20T00:38:30;21.95;;;9.57;;
71423;SDS011;59240;51.370;-0.486;2022-11-20T00:40:58;18.48;;;8.48;;
71423;SDS011;59240;51.370;-0.486;2022-11-20T00:43:26;19.97;;;8.73;;
71423;SDS011;59240;51.370;-0.486;2022-11-20T00:46:03;17.17;;;6.60;;
71423;SDS011;59240;51.370;-0.486;2022-11-20T00:48:35;19.33;;;7.35;;
71423;SDS011;59240;51.370;-0.486;2022-11-20T00:51:02;18.77;;;6.95;;
71423;SDS011;59240;51.370;-0.486;2022-11-20T00:53:28;18.15;;;6.78;;
71423;SDS011;59240;51.370;-0.486;2022-11-20T00:55:59;20.57;;;6.73;;
71423;SDS011;59240;51.370;-0.486;2022-11-20T00:58:30;15.63;;;6.10;;
71423;SDS011;59240;51.370;-0.486;2022-11-20T01:03:30;19.60;;;6.60;;
71423;SDS011;59240;51.370;-0.486;2022-11-20T01:06:05;20.88;;;6.40;;
71423;SDS011;59240;51.370;-0.486;2022-11-20T01:08:34;15.47;;;6.00;;
71423;SDS011;59240;51.370;-0.486;2022-11-20T01:11:03;20.65;;;5.80;;
71423;SDS011;59240;51.370;-0.486;2022-11-20T01:13:32;18.65;;;5.97;;
71423;SDS011;59240;51.370;-0.486;2022-11-20T01:16:09;16.90;;;6.10;;
71423;SDS011;59240;51.370;-0.486;2022-11-20T01:18:37;15.85;;;5.82;;
71423;SDS011;59240;51.370;-0.486;2022-11-20T01:21:06;15.90;;;5.53;;
71423;SDS011;59240;51.370;-0.486;2022-11-20T01:23:36;14.15;;;5.60;;
71423;SDS011;59240;51.370;-0.486;2022-11-20T01:26:05;24.10;;;6.40;;
71423;SDS011;59240;51.370;-0.486;2022-11-20T01:28:33;24.02;;;6.63;;
71423;SDS011;59240;51.370;-0.486;2022-11-20T01:31:00;27.73;;;7.40;;
71423;SDS011;59240;51.370;-0.486;2022-11-20T01:33:36;20.03;;;8.17;;
71423;SDS011;59240;51.370;-0.486;2022-11-20T01:36:03;21.23;;;7.95;;
71423;SDS011;59240;51.370;-0.486;2022-11-20T01:38:31;18.67;;;6.75;;
71423;SDS011;59240;51.370;-0.486;2022-11-20T01:40:57;15.95;;;6.07;;
71423;SDS011;59240;51.370;-0.486;2022-11-20T01:43:24;19.98;;;7.03;;
71423;SDS011;59240;51.370;-0.486;2022-11-20T01:46:02;15.60;;;6.27;;
71423;SDS011;59240;51.370;-0.486;2022-11-20T01:48:57;17.33;;;6.35;;
71423;SDS011;59240;51.370;-0.486;2022-11-20T01:54:36;18.35;;;5.93;;
71423;SDS011;59240;51.370;-0.486;2022-11-20T01:57:08;16.60;;;5.75;;
71423;SDS011;59240;51.370;-0.486;2022-11-20T01:59:39;16.57;;;5.80;;
71423;SDS011;59240;51.370;-0.486;2022-11-20T02:02:11;16.63;;;5.70;;
71423;SDS011;59240;51.370;-0.486;2022-11-20T02:04:37;15.57;;;5.45;;
71423;SDS011;59240;51.370;-0.486;2022-11-20T02:07:04;17.38;;;6.53;;
71423;SDS011;59240;51.370;-0.486;2022-11-20T02:09:31;16.67;;;6.10;;
71423;SDS011;59240;51.370;-0.486;2022-11-20T02:11:58;16.87;;;5.83;;
71423;SDS011;59240;51.370;-0.486;2022-11-20T02:14:25;13.95;;;5.28;;
71423;SDS011;59240;51.370;-0.486;2022-11-20T02:16:52;17.30;;;6.47;;
71423;SDS011;59240;51.370;-0.486;2022-11-20T02:19:30;14.10;;;5.75;;
71423;SDS011;59240;51.370;-0.486;2022-11-20T02:22:12;17.88;;;5.63;;
71423;SDS011;59240;51.370;-0.486;2022-11-20T02:24:45;15.90;;;5.60;;
71423;SDS011;59240;51.370;-0.486;2022-11-20T02:27:15;19.83;;;5.88;;
71423;SDS011;59240;51.370;-0.486;2022-11-20T02:29:53;20.40;;;5.38;;
71423;SDS011;59240;51.370;-0.486;2022-11-20T02:32:31;20.63;;;6.13;;
71423;SDS011;59240;51.370;-0.486;2022-11-20T02:35:07;16.45;;;5.32;;
71423;SDS011;59240;51.370;-0.486;2022-11-20T02:37:36;17.97;;;5.63;;
71423;SDS011;59240;51.370;-0.486;2022-11-20T02:40:05;20.63;;;4.22;;
71423;SDS011;59240;51.370;-0.486;2022-11-20T02:42:32;12.48;;;3.38;;
71423;SDS011;59240;51.370;-0.486;2022-11-20T02:44:58;9.85;;;2.78;;
71423;SDS011;59240;51.370;-0.486;2022-11-20T02:47:25;12.43;;;3.67;;
71423;SDS011;59240;51.370;-0.486;2022-11-20T02:49:51;10.33;;;2.90;;
71423;SDS011;59240;51.370;-0.486;2022-11-20T02:52:18;10.07;;;2.92;;
71423;SDS011;59240;51.370;-0.486;2022-11-20T02:54:44;10.75;;;3.17;;
71423;SDS011;59240;51.370;-0.486;2022-11-20T02:57:11;8.57;;;2.55;;
71423;SDS011;59240;51.370;-0.486;2022-11-20T02:59:37;11.13;;;3.15;;
71423;SDS011;59240;51.370;-0.486;2022-11-20T03:02:04;13.07;;;3.40;;
71423;SDS011;59240;51.370;-0.486;2022-11-20T03:04:31;11.07;;;3.20;;
71423;SDS011;59240;51.370;-0.486;2022-11-20T03:06:57;11.32;;;3.55;;
71423;SDS011;59240;51.370;-0.486;2022-11-20T03:09:24;9.93;;;3.28;;
71423;SDS011;59240;51.370;-0.486;2022-11-20T03:11:50;9.60;;;2.90;;
71423;SDS011;59240;51.370;-0.486;2022-11-20T03:14:17;12.00;;;4.17;;
71423;SDS011;59240;51.370;-0.486;2022-11-20T03:16:43;12.48;;;3.78;;
71423;SDS011;59240;51.370;-0.486;2022-11-20T03:19:11;12.85;;;4.05;;
71423;SDS011;59240;51.370;-0.486;2022-11-20T03:21:38;14.40;;;4.03;;
71423;SDS011;59240;51.370;-0.486;2022-11-20T03:24:04;16.88;;;4.00;;
71423;SDS011;59240;51.370;-0.486;2022-11-20T03:26:31;18.13;;;4.57;;
71423;SDS011;59240;51.370;-0.486;2022-11-20T03:28:58;14.50;;;3.75;;
71423;SDS011;59240;51.370;-0.486;2022-11-20T03:31:27;14.23;;;3.80;;
71423;SDS011;59240;51.370;-0.486;2022-11-20T03:33:56;11.48;;;3.47;;
71423;SDS011;59240;51.370;-0.486;2022-11-20T03:36:25;13.95;;;3.60;;
71423;SDS011;59240;51.370;-0.486;2022-11-20T03:38:53;11.37;;;3.70;;
71423;SDS011;59240;51.370;-0.486;2022-11-20T03:41:22;13.82;;;3.90;;
71423;SDS011;59240;51.370;-0.486;2022-11-20T03:43:50;9.80;;;3.42;;
71423;SDS011;59240;51.370;-0.486;2022-11-20T03:46:17;13.50;;;4.07;;
71423;SDS011;59240;51.370;-0.486;2022-11-20T03:48:44;12.73;;;3.58;;
71423;SDS011;59240;51.370;-0.486;2022-11-20T03:51:26;16.50;;;3.60;;
71423;SDS011;59240;51.370;-0.486;2022-11-20T03:53:56;12.38;;;3.67;;
71423;SDS011;59240;51.370;-0.486;2022-11-20T03:56:24;16.27;;;4.13;;
71423;SDS011;59240;51.370;-0.486;2022-11-20T03:58:53;11.95;;;3.65;;
71423;SDS011;59240;51.370;-0.486;2022-11-20T04:01:21;14.15;;;4.57;;
71423;SDS011;59240;51.370;-0.486;2022-11-20T04:03:49;14.97;;;4.43;;
71423;SDS011;59240;51.370;-0.486;2022-11-20T04:06:19;17.00;;;5.22;;
71423;SDS011;59240;51.370;-0.486;2022-11-20T04:08:48;18.25;;;5.35;;
71423;SDS011;59240;51.370;-0.486;2022-11-20T04:11:26;22.33;;;6.30;;
71423;SDS011;59240;51.370;-0.486;2022-11-20T04:13:56;18.77;;;4.90;;
71423;SDS011;59240;51.370;-0.486;2022-11-20T04:16:25;19.10;;;5.30;;
71423;SDS011;59240;51.370;-0.486;2022-11-20T04:18:53;20.67;;;5.35;;
71423;SDS011;59240;51.370;-0.486;2022-11-20T04:21:21;18.52;;;5.10;;
71423;SDS011;59240;51.370;-0.486;2022-11-20T04:23:48;20.67;;;5.40;;
71423;SDS011;59240;51.370;-0.486;2022-11-20T04:26:15;21.33;;;5.32;;
71423;SDS011;59240;51.370;-0.486;2022-11-20T04:28:43;24.60;;;5.93;;
71423;SDS011;59240;51.370;-0.486;2022-11-20T04:31:12;19.00;;;5.30;;
71423;SDS011;59240;51.370;-0.486;2022-11-20T04:33:40;19.38;;;4.72;;
71423;SDS011;59240;51.370;-0.486;2022-11-20T04:36:11;19.05;;;5.13;;
71423;SDS011;59240;51.370;-0.486;2022-11-20T04:38:39;14.43;;;3.88;;
71423;SDS011;59240;51.370;-0.486;2022-11-20T04:41:07;11.00;;;3.43;;
71423;SDS011;59240;51.370;-0.486;2022-11-20T04:43:37;12.68;;;3.20;;
71423;SDS011;59240;51.370;-0.486;2022-11-20T04:46:03;14.98;;;3.90;;
71423;SDS011;59240;51.370;-0.486;2022-11-20T04:48:30;14.23;;;4.18;;
71423;SDS011;59240;51.370;-0.486;2022-11-20T04:50:56;12.23;;;4.10;;
71423;SDS011;59240;51.370;-0.486;2022-11-20T04:53:23;20.10;;;5.33;;
71423;SDS011;59240;51.370;-0.486;2022-11-20T04:55:50;16.02;;;4.63;;
71423;SDS011;59240;51.370;-0.486;2022-11-20T04:58:16;13.48;;;4.40;;
71423;SDS011;59240;51.370;-0.486;2022-11-20T05:00:43;16.08;;;5.20;;
71423;SDS011;59240;51.370;-0.486;2022-11-20T05:03:09;15.05;;;4.97;;
71423;SDS011;59240;51.370;-0.486;2022-11-20T05:05:36;15.40;;;5.53;;
71423;SDS011;59240;51.370;-0.486;2022-11-20T05:08:02;13.75;;;4.80;;
71423;SDS011;59240;51.370;-0.486;2022-11-20T05:10:29;17.30;;;4.50;;
71423;SDS011;59240;51.370;-0.486;2022-11-20T05:12:56;19.52;;;4.35;;
71423;SDS011;59240;51.370;-0.486;2022-11-20T05:15:23;18.88;;;5.20;;
71423;SDS011;59240;51.370;-0.486;2022-11-20T05:17:50;16.63;;;5.37;;
71423;SDS011;59240;51.370;-0.486;2022-11-20T05:20:18;16.90;;;4.95;;
71423;SDS011;59240;51.370;-0.486;2022-11-20T05:22:45;16.33;;;5.53;;
71423;SDS011;59240;51.370;-0.486;2022-11-20T05:25:12;16.42;;;5.60;;
71423;SDS011;59240;51.370;-0.486;2022-11-20T05:27:38;20.08;;;5.53;;
71423;SDS011;59240;51.370;-0.486;2022-11-20T05:30:05;15.23;;;5.00;;
71423;SDS011;59240;51.370;-0.486;2022-11-20T05:32:32;16.40;;;4.75;;
71423;SDS011;59240;51.370;-0.486;2022-11-20T05:34:59;14.63;;;4.57;;
71423;SDS011;59240;51.370;-0.486;2022-11-20T05:37:26;14.77;;;4.72;;
71423;SDS011;59240;51.370;-0.486;2022-11-20T05:39:52;15.60;;;4.72;;
71423;SDS011;59240;51.370;-0.486;2022-11-20T05:42:18;18.20;;;5.07;;
71423;SDS011;59240;51.370;-0.486;2022-11-20T05:44:57;19.95;;;5.75;;
71423;SDS011;59240;51.370;-0.486;2022-11-20T05:47:28;14.45;;;5.30;;
71423;SDS011;59240;51.370;-0.486;2022-11-20T05:49:59;23.95;;;6.50;;
71423;SDS011;59240;51.370;-0.486;2022-11-20T05:52:29;22.08;;;6.25;;
71423;SDS011;59240;51.370;-0.486;2022-11-20T05:54:56;21.37;;;5.70;;
71423;SDS011;59240;51.370;-0.486;2022-11-20T05:57:23;17.73;;;5.80;;
71423;SDS011;59240;51.370;-0.486;2022-11-20T05:59:49;17.75;;;6.22;;
71423;SDS011;59240;51.370;-0.486;2022-11-20T06:02:16;19.85;;;5.82;;
71423;SDS011;59240;51.370;-0.486;2022-11-20T06:04:43;13.85;;;4.35;;
71423;SDS011;59240;51.370;-0.486;2022-11-20T06:07:09;13.57;;;4.63;;
71423;SDS011;59240;51.370;-0.486;2022-11-20T06:09:36;14.00;;;4.40;;
71423;SDS011;59240;51.370;-0.486;2022-11-20T06:12:03;13.90;;;4.45;;
71423;SDS011;59240;51.370;-0.486;2022-11-20T06:14:30;12.63;;;4.00;;
71423;SDS011;59240;51.370;-0.486;2022-11-20T06:16:56;16.17;;;3.88;;
71423;SDS011;59240;51.370;-0.486;2022-11-20T06:19:23;12.03;;;4.50;;
71423;SDS011;59240;51.370;-0.486;2022-11-20T06:21:49;14.25;;;4.95;;
71423;SDS011;59240;51.370;-0.486;2022-11-20T06:24:16;18.77;;;5.43;;
71423;SDS011;59240;51.370;-0.486;2022-11-20T06:26:43;15.88;;;5.68;;
71423;SDS011;59240;51.370;-0.486;2022-11-20T06:29:10;19.63;;;6.82;;
71423;SDS011;59240;51.370;-0.486;2022-11-20T06:31:36;22.23;;;6.30;;
71423;SDS011;59240;51.370;-0.486;2022-11-20T06:34:04;23.45;;;7.15;;
71423;SDS011;59240;51.370;-0.486;2022-11-20T06:36:32;19.30;;;5.93;;
71423;SDS011;59240;51.370;-0.486;2022-11-20T06:38:59;14.90;;;5.47;;
71423;SDS011;59240;51.370;-0.486;2022-11-20T06:41:26;22.50;;;5.95;;
71423;SDS011;59240;51.370;-0.486;2022-11-20T06:43:54;15.53;;;4.60;;
71423;SDS011;59240;51.370;-0.486;2022-11-20T06:46:20;12.30;;;3.72;;
71423;SDS011;59240;51.370;-0.486;2022-11-20T06:48:48;10.20;;;2.50;;
71423;SDS011;59240;51.370;-0.486;2022-11-20T06:51:15;9.35;;;2.75;;
71423;SDS011;59240;51.370;-0.486;2022-11-20T06:53:42;7.57;;;2.45;;
71423;SDS011;59240;51.370;-0.486;2022-11-20T06:56:09;6.33;;;1.90;;
71423;SDS011;59240;51.370;-0.486;2022-11-20T06:58:36;8.43;;;2.22;;
71423;SDS011;59240;51.370;-0.486;2022-11-20T07:01:07;7.30;;;1.90;;
71423;SDS011;59240;51.370;-0.486;2022-11-20T07:03:36;8.77;;;2.33;;
71423;SDS011;59240;51.370;-0.486;2022-11-20T07:06:03;11.00;;;1.88;;
71423;SDS011;59240;51.370;-0.486;2022-11-20T07:08:31;6.17;;;1.60;;
71423;SDS011;59240;51.370;-0.486;2022-11-20T07:11:02;10.10;;;1.75;;
71423;SDS011;59240;51.370;-0.486;2022-11-20T07:13:30;8.98;;;1.45;;
71423;SDS011;59240;51.370;-0.486;2022-11-20T07:16:01;11.02;;;2.03;;
71423;SDS011;59240;51.370;-0.486;2022-11-20T07:18:29;6.40;;;1.52;;
71423;SDS011;59240;51.370;-0.486;2022-11-20T07:20:56;4.27;;;1.03;;
71423;SDS011;59240;51.370;-0.486;2022-11-20T07:23:25;9.02;;;1.42;;
71423;SDS011;59240;51.370;-0.486;2022-11-20T07:25:52;6.22;;;1.23;;
71423;SDS011;59240;51.370;-0.486;2022-11-20T07:28:18;5.55;;;1.17;;
71423;SDS011;59240;51.370;-0.486;2022-11-20T07:30:51;5.15;;;0.90;;
71423;SDS011;59240;51.370;-0.486;2022-11-20T07:33:19;5.47;;;1.00;;
71423;SDS011;59240;51.370;-0.486;2022-11-20T07:35:46;5.80;;;1.00;;
71423;SDS011;59240;51.370;-0.486;2022-11-20T07:38:12;7.65;;;1.25;;
71423;SDS011;59240;51.370;-0.486;2022-11-20T07:40:39;5.25;;;1.30;;
71423;SDS011;59240;51.370;-0.486;2022-11-20T07:43:05;8.50;;;1.85;;
71423;SDS011;59240;51.370;-0.486;2022-11-20T07:45:32;8.33;;;1.83;;
71423;SDS011;59240;51.370;-0.486;2022-11-20T07:47:59;6.60;;;1.75;;
71423;SDS011;59240;51.370;-0.486;2022-11-20T07:50:25;9.13;;;2.58;;
71423;SDS011;59240;51.370;-0.486;2022-11-20T07:52:52;10.50;;;2.45;;
71423;SDS011;59240;51.370;-0.486;2022-11-20T07:55:18;9.82;;;2.40;;
71423;SDS011;59240;51.370;-0.486;2022-11-20T07:57:45;11.03;;;3.37;;
71423;SDS011;59240;51.370;-0.486;2022-11-20T08:00:11;8.82;;;2.72;;
71423;SDS011;59240;51.370;-0.486;2022-11-20T08:02:39;9.43;;;2.63;;
71423;SDS011;59240;51.370;-0.486;2022-11-20T08:05:07;10.63;;;2.75;;
71423;SDS011;59240;51.370;-0.486;2022-11-20T08:07:37;10.00;;;3.00;;
71423;SDS011;59240;51.370;-0.486;2022-11-20T08:10:06;11.90;;;2.90;;
71423;SDS011;59240;51.370;-0.486;2022-11-20T08:12:34;11.48;;;2.90;;
71423;SDS011;59240;51.370;-0.486;2022-11-20T08:15:19;11.70;;;2.60;;
71423;SDS011;59240;51.370;-0.486;2022-11-20T08:17:46;8.80;;;1.98;;
71423;SDS011;59240;51.370;-0.486;2022-11-20T08:20:32;6.63;;;2.13;;
71423;SDS011;59240;51.370;-0.486;2022-11-20T08:23:04;8.37;;;1.90;;
71423;SDS011;59240;51.370;-0.486;2022-11-20T08:25:32;7.07;;;2.00;;
71423;SDS011;59240;51.370;-0.486;2022-11-20T08:28:06;8.10;;;1.83;;
71423;SDS011;59240;51.370;-0.486;2022-11-20T08:30:45;9.27;;;2.33;;
71423;SDS011;59240;51.370;-0.486;2022-11-20T08:33:12;9.57;;;2.13;;
71423;SDS011;59240;51.370;-0.486;2022-11-20T08:35:39;10.90;;;2.50;;
71423;SDS011;59240;51.370;-0.486;2022-11-20T08:38:07;9.27;;;2.50;;
71423;SDS011;59240;51.370;-0.486;2022-11-20T08:40:35;9.73;;;2.80;;
71423;SDS011;59240;51.370;-0.486;2022-11-20T08:43:01;9.70;;;3.08;;
71423;SDS011;59240;51.370;-0.486;2022-11-20T08:45:28;10.90;;;2.70;;
71423;SDS011;59240;51.370;-0.486;2022-11-20T08:48:00;10.63;;;3.20;;
71423;SDS011;59240;51.370;-0.486;2022-11-20T08:50:27;14.90;;;3.20;;
71423;SDS011;59240;51.370;-0.486;2022-11-20T08:52:54;9.80;;;2.60;;
71423;SDS011;59240;51.370;-0.486;2022-11-20T08:55:21;12.85;;;2.92;;
71423;SDS011;59240;51.370;-0.486;2022-11-20T08:57:47;11.05;;;2.50;;
71423;SDS011;59240;51.370;-0.486;2022-11-20T09:00:16;9.00;;;2.70;;
71423;SDS011;59240;51.370;-0.486;2022-11-20T09:02:43;8.48;;;2.78;;
71423;SDS011;59240;51.370;-0.486;2022-11-20T09:05:09;12.98;;;2.30;;
71423;SDS011;59240;51.370;-0.486;2022-11-20T09:07:36;10.55;;;2.38;;
71423;SDS011;59240;51.370;-0.486;2022-11-20T09:10:03;6.53;;;2.00;;
71423;SDS011;59240;51.370;-0.486;2022-11-20T09:12:49;11.40;;;2.20;;
71423;SDS011;59240;51.370;-0.486;2022-11-20T09:15:17;7.47;;;1.65;;
71423;SDS011;59240;51.370;-0.486;2022-11-20T09:17:51;8.38;;;1.65;;
71423;SDS011;59240;51.370;-0.486;2022-11-20T09:20:18;6.60;;;1.60;;
71423;SDS011;59240;51.370;-0.486;2022-11-20T09:22:45;6.55;;;1.25;;
71423;SDS011;59240;51.370;-0.486;2022-11-20T09:25:11;11.07;;;1.63;;
71423;SDS011;59240;51.370;-0.486;2022-11-20T09:27:38;6.85;;;1.25;;
71423;SDS011;59240;51.370;-0.486;2022-11-20T09:30:04;7.78;;;1.40;;
71423;SDS011;59240;51.370;-0.486;2022-11-20T09:32:31;11.02;;;1.50;;
71423;SDS011;59240;51.370;-0.486;2022-11-20T09:34:58;10.88;;;1.38;;
71423;SDS011;59240;51.370;-0.486;2022-11-20T09:37:25;9.73;;;1.20;;
71423;SDS011;59240;51.370;-0.486;2022-11-20T09:39:52;11.60;;;1.98;;
71423;SDS011;59240;51.370;-0.486;2022-11-20T09:42:23;9.05;;;0.90;;
71423;SDS011;59240;51.370;-0.486;2022-11-20T09:56:07;14.27;;;1.38;;
71423;SDS011;59240;51.370;-0.486;2022-11-20T09:58:38;10.15;;;1.17;;
71423;SDS011;59240;51.370;-0.486;2022-11-20T10:01:10;11.32;;;1.42;;
71423;SDS011;59240;51.370;-0.486;2022-11-20T10:06:33;11.55;;;1.38;;
71423;SDS011;59240;51.370;-0.486;2022-11-20T10:14:16;13.38;;;1.35;;
71423;SDS011;59240;51.370;-0.486;2022-11-20T10:16:59;9.73;;;1.50;;
71423;SDS011;59240;51.370;-0.486;2022-11-20T10:19:56;8.40;;;1.40;;
71423;SDS011;59240;51.370;-0.486;2022-11-20T10:31:39;9.70;;;0.97;;
71423;SDS011;59240;51.370;-0.486;2022-11-20T10:34:12;9.75;;;1.20;;
71423;SDS011;59240;51.370;-0.486;2022-11-20T10:37:16;9.88;;;0.85;;
71423;SDS011;59240;51.370;-0.486;2022-11-20T10:42:30;16.52;;;1.40;;
71423;SDS011;59240;51.370;-0.486;2022-11-20T10:47:56;10.50;;;1.13;;
71423;SDS011;59240;51.370;-0.486;2022-11-20T10:50:25;11.18;;;1.20;;
71423;SDS011;59240;51.370;-0.486;2022-11-20T10:53:00;12.60;;;1.30;;
71423;SDS011;59240;51.370;-0.486;2022-11-20T10:55:54;11.73;;;1.20;;
71423;SDS011;59240;51.370;-0.486;2022-11-20T11:01:05;16.08;;;1.42;;
71423;SDS011;59240;51.370;-0.486;2022-11-20T11:03:40;11.75;;;1.45;;
71423;SDS011;59240;51.370;-0.486;2022-11-20T11:06:24;10.07;;;1.23;;
71423;SDS011;59240;51.370;-0.486;2022-11-20T11:09:06;18.67;;;3.72;;
71423;SDS011;59240;51.370;-0.486;2022-11-20T11:11:38;11.73;;;1.30;;
71423;SDS011;59240;51.370;-0.486;2022-11-20T11:14:05;14.07;;;1.85;;
71423;SDS011;59240;51.370;-0.486;2022-11-20T11:16:33;10.73;;;1.35;;
71423;SDS011;59240;51.370;-0.486;2022-11-20T11:19:03;21.75;;;1.67;;
71423;SDS011;59240;51.370;-0.486;2022-11-20T11:21:37;14.15;;;1.85;;
71423;SDS011;59240;51.370;-0.486;2022-11-20T11:24:15;12.33;;;1.53;;
71423;SDS011;59240;51.370;-0.486;2022-11-20T11:27:11;14.82;;;1.02;;
71423;SDS011;59240;51.370;-0.486;2022-11-20T11:29:42;18.40;;;2.70;;
71423;SDS011;59240;51.370;-0.486;2022-11-20T11:32:17;20.58;;;2.75;;
71423;SDS011;59240;51.370;-0.486;2022-11-20T11:37:45;13.13;;;2.70;;
71423;SDS011;59240;51.370;-0.486;2022-11-20T11:40:14;14.63;;;1.70;;
71423;SDS011;59240;51.370;-0.486;2022-11-20T11:42:54;12.77;;;1.48;;
71423;SDS011;59240;51.370;-0.486;2022-11-20T11:45:24;11.38;;;1.45;;
71423;SDS011;59240;51.370;-0.486;2022-11-20T11:47:51;18.13;;;1.88;;
71423;SDS011;59240;51.370;-0.486;2022-11-20T11:50:24;14.63;;;1.37;;
71423;SDS011;59240;51.370;-0.486;2022-11-20T12:04:03;14.60;;;2.47;;
71423;SDS011;59240;51.370;-0.486;2022-11-20T12:06:39;16.80;;;2.05;;
71423;SDS011;59240;51.370;-0.486;2022-11-20T12:09:10;13.13;;;1.50;;
71423;SDS011;59240;51.370;-0.486;2022-11-20T12:11:45;17.40;;;1.80;;
71423;SDS011;59240;51.370;-0.486;2022-11-20T12:14:20;11.05;;;1.83;;
71423;SDS011;59240;51.370;-0.486;2022-11-20T12:16:53;15.70;;;1.50;;
71423;SDS011;59240;51.370;-0.486;2022-11-20T12:19:21;17.02;;;1.63;;
71423;SDS011;59240;51.370;-0.486;2022-11-20T12:21:52;20.25;;;1.52;;
71423;SDS011;59240;51.370;-0.486;2022-11-20T12:24:42;15.25;;;2.00;;
71423;SDS011;59240;51.370;-0.486;2022-11-20T12:30:24;17.23;;;1.60;;
71423;SDS011;59240;51.370;-0.486;2022-11-20T12:43:06;18.03;;;1.93;;
71423;SDS011;59240;51.370;-0.486;2022-11-20T12:51:21;15.18;;;2.00;;
71423;SDS011;59240;51.370;-0.486;2022-11-20T12:57:07;11.00;;;1.20;;
71423;SDS011;59240;51.370;-0.486;2022-11-20T13:07:43;13.95;;;1.63;;
71423;SDS011;59240;51.370;-0.486;2022-11-20T13:10:26;15.63;;;1.53;;
71423;SDS011;59240;51.370;-0.486;2022-11-20T13:13:01;14.77;;;1.48;;
71423;SDS011;59240;51.370;-0.486;2022-11-20T13:15:45;16.23;;;1.70;;
71423;SDS011;59240;51.370;-0.486;2022-11-20T13:18:20;13.85;;;1.33;;
71423;SDS011;59240;51.370;-0.486;2022-11-20T13:20:47;12.30;;;1.85;;
71423;SDS011;59240;51.370;-0.486;2022-11-20T13:23:25;12.87;;;1.33;;
71423;SDS011;59240;51.370;-0.486;2022-11-20T13:26:03;14.77;;;1.50;;
71423;SDS011;59240;51.370;-0.486;2022-11-20T13:28:32;14.18;;;1.45;;
71423;SDS011;59240;51.370;-0.486;2022-11-20T13:30:59;11.23;;;1.50;;
71423;SDS011;59240;51.370;-0.486;2022-11-20T13:36:04;13.00;;;1.40;;
71423;SDS011;59240;51.370;-0.486;2022-11-20T13:38:47;12.57;;;1.63;;
71423;SDS011;59240;51.370;-0.486;2022-11-20T13:41:29;10.20;;;1.30;;
71423;SDS011;59240;51.370;-0.486;2022-11-20T13:44:09;14.93;;;1.58;;
71423;SDS011;59240;51.370;-0.486;2022-11-20T13:47:00;27.08;;;1.95;;
71423;SDS011;59240;51.370;-0.486;2022-11-20T13:49:31;14.47;;;1.60;;
71423;SDS011;59240;51.370;-0.486;2022-11-20T13:57:46;11.57;;;1.45;;
71423;SDS011;59240;51.370;-0.486;2022-11-20T14:00:18;8.95;;;1.25;;
71423;SDS011;59240;51.370;-0.486;2022-11-20T14:03:30;21.77;;;2.60;;
71423;SDS011;59240;51.370;-0.486;2022-11-20T14:06:01;13.02;;;1.58;;
71423;SDS011;59240;51.370;-0.486;2022-11-20T14:08:35;15.43;;;1.65;;
71423;SDS011;59240;51.370;-0.486;2022-11-20T14:14:15;12.43;;;2.00;;
71423;SDS011;59240;51.370;-0.486;2022-11-20T14:16:41;17.23;;;4.27;;
71423;SDS011;59240;51.370;-0.486;2022-11-20T14:21:50;43.05;;;12.35;;
71423;SDS011;59240;51.370;-0.486;2022-11-20T14:24:19;16.92;;;4.13;;
71423;SDS011;59240;51.370;-0.486;2022-11-20T14:26:47;30.50;;;9.52;;
71423;SDS011;59240;51.370;-0.486;2022-11-20T14:29:17;29.93;;;9.40;;
71423;SDS011;59240;51.370;-0.486;2022-11-20T14:31:44;33.70;;;9.85;;
71423;SDS011;59240;51.370;-0.486;2022-11-20T14:34:20;42.38;;;14.07;;
71423;SDS011;59240;51.370;-0.486;2022-11-20T14:36:52;24.27;;;7.03;;
71423;SDS011;59240;51.370;-0.486;2022-11-20T14:40:20;24.80;;;5.47;;
71423;SDS011;59240;51.370;-0.486;2022-11-20T14:42:16;23.17;;;4.23;;
71423;SDS011;59240;51.370;-0.486;2022-11-20T14:44:51;22.88;;;5.63;;
71423;SDS011;59240;51.370;-0.486;2022-11-20T14:47:23;18.67;;;4.78;;
71423;SDS011;59240;51.370;-0.486;2022-11-20T14:49:52;16.85;;;4.40;;
71423;SDS011;59240;51.370;-0.486;2022-11-20T14:52:23;19.45;;;5.15;;
71423;SDS011;59240;51.370;-0.486;2022-11-20T14:54:55;23.60;;;8.90;;
71423;SDS011;59240;51.370;-0.486;2022-11-20T14:57:26;13.27;;;2.40;;
71423;SDS011;59240;51.370;-0.486;2022-11-20T15:00:06;13.43;;;1.80;;
71423;SDS011;59240;51.370;-0.486;2022-11-20T15:02:45;13.07;;;2.83;;
71423;SDS011;59240;51.370;-0.486;2022-11-20T15:05:13;14.02;;;1.92;;
71423;SDS011;59240;51.370;-0.486;2022-11-20T15:07:43;14.57;;;1.67;;
71423;SDS011;59240;51.370;-0.486;2022-11-20T15:10:24;10.88;;;1.42;;
71423;SDS011;59240;51.370;-0.486;2022-11-20T15:12:52;18.35;;;1.63;;
71423;SDS011;59240;51.370;-0.486;2022-11-20T15:15:25;10.98;;;1.40;;
71423;SDS011;59240;51.370;-0.486;2022-11-20T15:17:54;20.30;;;3.65;;
71423;SDS011;59240;51.370;-0.486;2022-11-20T15:20:22;15.90;;;3.00;;
71423;SDS011;59240;51.370;-0.486;2022-11-20T15:22:59;12.35;;;2.67;;
71423;SDS011;59240;51.370;-0.486;2022-11-20T15:25:26;11.90;;;2.25;;
71423;SDS011;59240;51.370;-0.486;2022-11-20T15:27:55;16.30;;;2.55;;
71423;SDS011;59240;51.370;-0.486;2022-11-20T15:30:23;15.43;;;2.55;;
71423;SDS011;59240;51.370;-0.486;2022-11-20T15:32:50;10.47;;;1.30;;
71423;SDS011;59240;51.370;-0.486;2022-11-20T15:35:17;12.23;;;2.40;;
71423;SDS011;59240;51.370;-0.486;2022-11-20T15:37:43;14.90;;;1.85;;
71423;SDS011;59240;51.370;-0.486;2022-11-20T15:40:10;13.57;;;1.30;;
71423;SDS011;59240;51.370;-0.486;2022-11-20T15:42:37;7.50;;;1.20;;
71423;SDS011;59240;51.370;-0.486;2022-11-20T15:45:03;14.67;;;1.20;;
71423;SDS011;59240;51.370;-0.486;2022-11-20T15:47:31;13.52;;;1.40;;
71423;SDS011;59240;51.370;-0.486;2022-11-20T15:50:00;12.05;;;1.25;;
71423;SDS011;59240;51.370;-0.486;2022-11-20T15:52:27;12.73;;;2.13;;
71423;SDS011;59240;51.370;-0.486;2022-11-20T15:55:09;9.63;;;1.05;;
71423;SDS011;59240;51.370;-0.486;2022-11-20T15:57:36;13.87;;;1.70;;
71423;SDS011;59240;51.370;-0.486;2022-11-20T16:00:03;13.18;;;1.65;;
71423;SDS011;59240;51.370;-0.486;2022-11-20T16:02:30;13.85;;;2.30;;
71423;SDS011;59240;51.370;-0.486;2022-11-20T16:04:56;15.65;;;1.95;;
71423;SDS011;59240;51.370;-0.486;2022-11-20T16:07:22;16.98;;;1.83;;
71423;SDS011;59240;51.370;-0.486;2022-11-20T16:09:49;13.57;;;1.77;;
71423;SDS011;59240;51.370;-0.486;2022-11-20T16:12:16;14.30;;;1.58;;
71423;SDS011;59240;51.370;-0.486;2022-11-20T16:15:02;17.00;;;1.65;;
71423;SDS011;59240;51.370;-0.486;2022-11-20T16:17:47;14.40;;;2.15;;
71423;SDS011;59240;51.370;-0.486;2022-11-20T16:20:14;20.38;;;1.95;;
71423;SDS011;59240;51.370;-0.486;2022-11-20T16:22:41;13.70;;;1.77;;
71423;SDS011;59240;51.370;-0.486;2022-11-20T16:25:08;15.77;;;2.08;;